createdAt,value
2022-12-15T00:00:30.486Z,18.50
2022-12-15T00:03:23.530Z,22.60
2022-12-15T00:06:10.659Z,23.65
2022-12-15T00:08:56.621Z,20.67
2022-12-15T00:11:42.652Z,21.73
2022-12-15T00:14:27.877Z,20.77
2022-12-15T00:17:14.074Z,18.25
2022-12-15T00:20:01.238Z,19.65
2022-12-15T00:22:47.525Z,17.10
2022-12-15T00:25:33.981Z,16.25
2022-12-15T00:28:20.255Z,16.70
2022-12-15T00:31:05.728Z,16.67
2022-12-15T00:33:51.775Z,15.55
2022-12-15T00:36:38.526Z,17.20
2022-12-15T00:39:07.428Z,15.23
2022-12-15T00:41:35.401Z,19.10
2022-12-15T00:44:03.868Z,21.15
2022-12-15T00:46:50.279Z,16.77
2022-12-15T00:49:32.253Z,13.73
2022-12-15T00:52:19.618Z,21.48
2022-12-15T00:55:04.955Z,17.60
2022-12-15T00:57:51.233Z,15.23
2022-12-15T01:00:36.639Z,19.25
2022-12-15T01:03:29.605Z,19.00
2022-12-15T01:06:15.426Z,19.77
2022-12-15T01:09:03.436Z,18.00
2022-12-15T01:11:48.584Z,20.35
2022-12-15T01:14:34.714Z,19.42
2022-12-15T01:17:19.967Z,24.13
2022-12-15T01:20:05.623Z,20.45
2022-12-15T01:22:37.096Z,14.25
2022-12-15T01:25:09.276Z,17.75
2022-12-15T01:27:37.294Z,20.02
2022-12-15T01:30:08.266Z,19.75
2022-12-15T01:32:41.414Z,17.75
2022-12-15T01:35:13.166Z,17.67
2022-12-15T01:37:41.577Z,14.63
2022-12-15T01:40:32.202Z,16.65
2022-12-15T01:43:01.224Z,19.52
2022-12-15T01:45:48.016Z,16.27
2022-12-15T01:48:21.987Z,23.40
2022-12-15T01:51:00.083Z,17.38
2022-12-15T01:53:29.529Z,17.55
2022-12-15T01:56:00.148Z,14.40
2022-12-15T02:00:56.152Z,16.77
2022-12-15T02:03:26.900Z,19.15
2022-12-15T02:05:56.146Z,23.80
2022-12-15T02:08:24.596Z,17.98
2022-12-15T02:11:11.977Z,17.10
2022-12-15T02:13:49.764Z,14.70
2022-12-15T02:16:24.606Z,18.70
2022-12-15T02:19:02.546Z,17.70
2022-12-15T02:21:33.309Z,19.52
2022-12-15T02:24:40.232Z,16.30
2022-12-15T02:27:22.767Z,16.95
2022-12-15T02:30:21.342Z,20.60
2022-12-15T02:33:04.855Z,17.52
2022-12-15T02:35:43.673Z,16.98
2022-12-15T02:38:11.914Z,18.17
2022-12-15T02:40:40.622Z,18.10
2022-12-15T02:43:11.570Z,15.80
2022-12-15T02:45:52.977Z,23.42
2022-12-15T02:48:32.655Z,17.88
2022-12-15T02:51:17.659Z,15.15
2022-12-15T02:54:07.453Z,17.60
2022-12-15T02:56:42.641Z,22.85
2022-12-15T02:59:19.205Z,16.15
2022-12-15T03:01:52.542Z,14.10
2022-12-15T03:04:24.522Z,19.70
2022-12-15T03:07:00.842Z,21.73
2022-12-15T03:09:30.221Z,19.40
2022-12-15T03:11:58.244Z,13.75
2022-12-15T03:14:26.734Z,21.58
2022-12-15T03:16:56.037Z,19.90
2022-12-15T03:19:25.907Z,21.33
2022-12-15T03:21:54.933Z,19.48
2022-12-15T03:24:22.912Z,18.40
2022-12-15T03:26:51.881Z,18.60
2022-12-15T03:29:21.523Z,20.92
2022-12-15T03:31:50.069Z,23.20
2022-12-15T03:34:19.591Z,24.55
2022-12-15T03:36:49.442Z,24.73
2022-12-15T03:39:17.443Z,21.80
2022-12-15T03:41:45.870Z,21.55
2022-12-15T03:44:14.662Z,23.20
2022-12-15T03:46:42.621Z,23.15
2022-12-15T03:49:11.010Z,21.42
2022-12-15T03:51:39.789Z,24.17
2022-12-15T03:54:09.258Z,26.95
2022-12-15T03:56:37.985Z,28.95
2022-12-15T03:59:05.919Z,22.52
2022-12-15T04:01:36.102Z,21.30
2022-12-15T04:04:06.446Z,23.08
2022-12-15T04:06:34.427Z,16.67
2022-12-15T04:09:02.871Z,22.73
2022-12-15T04:11:32.605Z,22.35
2022-12-15T04:16:28.513Z,23.98
2022-12-15T04:19:11.399Z,16.63
2022-12-15T04:21:39.589Z,20.17
2022-12-15T04:24:25.735Z,19.63
2022-12-15T04:27:12.495Z,18.83
2022-12-15T04:29:58.782Z,21.65
2022-12-15T04:32:44.257Z,20.67
2022-12-15T04:35:36.399Z,18.10
2022-12-15T04:38:22.074Z,20.75
2022-12-15T04:41:08.220Z,16.30
2022-12-15T04:43:55.482Z,17.63
2022-12-15T04:46:41.270Z,18.77
2022-12-15T04:49:26.664Z,19.10
2022-12-15T04:52:12.842Z,17.85
2022-12-15T04:54:57.992Z,17.90
2022-12-15T04:57:44.124Z,19.27
2022-12-15T05:00:32.226Z,17.23
2022-12-15T05:03:23.377Z,18.08
2022-12-15T05:06:08.558Z,18.95
2022-12-15T05:08:54.836Z,16.73
2022-12-15T05:11:40.685Z,21.95
2022-12-15T05:14:27.432Z,15.60
2022-12-15T05:17:14.663Z,18.60
2022-12-15T05:20:01.125Z,18.15
2022-12-15T05:22:46.493Z,16.17
2022-12-15T05:25:33.365Z,23.10
2022-12-15T05:28:18.590Z,17.25
2022-12-15T05:31:05.178Z,19.08
2022-12-15T05:33:34.757Z,19.83
2022-12-15T05:36:02.844Z,20.90
2022-12-15T05:38:31.611Z,19.60
2022-12-15T05:40:59.764Z,15.05
2022-12-15T05:43:29.878Z,15.85
2022-12-15T05:46:04.439Z,18.45
2022-12-15T05:48:33.803Z,17.48
2022-12-15T05:51:05.397Z,19.65
2022-12-15T05:53:33.719Z,20.85
2022-12-15T05:56:03.226Z,20.42
2022-12-15T05:58:32.313Z,17.08
2022-12-15T06:01:06.904Z,17.13
2022-12-15T06:03:37.378Z,21.05
2022-12-15T06:08:36.264Z,21.40
2022-12-15T06:11:05.692Z,18.52
2022-12-15T06:13:35.465Z,18.50
2022-12-15T06:16:06.764Z,24.80
2022-12-15T06:18:38.806Z,22.95
2022-12-15T06:21:11.636Z,27.15
2022-12-15T06:23:40.193Z,23.00
2022-12-15T06:26:14.691Z,22.13
2022-12-15T06:28:43.807Z,22.40
2022-12-15T06:31:13.450Z,21.03
2022-12-15T06:33:43.865Z,20.90
2022-12-15T06:36:14.687Z,22.75
2022-12-15T06:38:44.078Z,16.90
2022-12-15T06:41:13.607Z,20.02
2022-12-15T06:46:11.499Z,17.35
2022-12-15T06:48:40.004Z,18.23
2022-12-15T06:51:16.386Z,19.77
2022-12-15T06:53:49.133Z,18.90
2022-12-15T06:56:20.784Z,19.40
2022-12-15T06:58:50.269Z,19.95
2022-12-15T07:01:19.494Z,22.33
2022-12-15T07:03:48.534Z,18.90
2022-12-15T07:06:18.757Z,22.88
2022-12-15T07:08:52.289Z,20.90
2022-12-15T07:11:22.271Z,22.17
2022-12-15T07:13:50.799Z,19.17
2022-12-15T07:16:19.053Z,22.35
2022-12-15T07:18:48.010Z,26.33
2022-12-15T07:21:17.640Z,18.77
2022-12-15T07:23:54.712Z,20.52
2022-12-15T07:26:24.296Z,23.02
2022-12-15T07:28:52.946Z,19.67
2022-12-15T07:31:21.500Z,24.35
2022-12-15T07:33:49.876Z,18.10
2022-12-15T07:36:19.532Z,21.60
2022-12-15T07:41:20.334Z,18.50
2022-12-15T07:43:48.487Z,20.50
2022-12-15T07:46:16.643Z,16.13
2022-12-15T07:48:44.665Z,17.58
2022-12-15T07:51:21.668Z,11.75
2022-12-15T07:53:51.112Z,18.20
2022-12-15T07:58:49.149Z,16.60
2022-12-15T08:01:18.190Z,19.50
2022-12-15T08:03:46.338Z,20.02
2022-12-15T08:06:16.814Z,22.90
2022-12-15T08:11:21.824Z,17.42
2022-12-15T08:14:10.372Z,20.17
2022-12-15T08:16:40.125Z,18.48
2022-12-15T08:19:11.364Z,18.65
2022-12-15T08:21:41.231Z,17.35
2022-12-15T08:24:11.304Z,19.25
2022-12-15T08:26:41.338Z,17.45
2022-12-15T08:32:03.544Z,18.52
2022-12-15T08:34:31.621Z,14.52
2022-12-15T08:36:59.996Z,18.05
2022-12-15T08:39:30.054Z,18.33
2022-12-15T08:41:58.010Z,18.90
2022-12-15T08:44:25.926Z,21.60
2022-12-15T08:46:54.736Z,15.45
2022-12-15T08:49:22.756Z,17.92
2022-12-15T08:51:52.313Z,22.65
2022-12-15T08:54:21.166Z,21.37
2022-12-15T08:56:51.041Z,18.05
2022-12-15T08:59:20.610Z,20.67
2022-12-15T09:01:48.855Z,21.90
2022-12-15T09:04:17.753Z,17.15
2022-12-15T09:06:50.799Z,18.17
2022-12-15T09:09:19.226Z,18.45
2022-12-15T09:11:47.162Z,19.17
2022-12-15T09:14:17.624Z,19.92
2022-12-15T09:19:13.936Z,14.73
2022-12-15T09:21:45.394Z,16.38
2022-12-15T09:24:23.224Z,19.25
2022-12-15T09:26:55.283Z,20.10
2022-12-15T09:29:24.641Z,15.77
2022-12-15T09:31:53.157Z,18.88
2022-12-15T09:34:21.865Z,16.13
2022-12-15T09:36:49.875Z,16.38
2022-12-15T09:39:18.548Z,16.63
2022-12-15T09:41:54.546Z,18.80
2022-12-15T09:44:26.774Z,17.05
2022-12-15T09:47:18.140Z,15.68
2022-12-15T09:49:56.124Z,19.50
2022-12-15T09:52:29.441Z,15.35
2022-12-15T09:54:58.697Z,18.38
2022-12-15T09:57:45.420Z,18.40
2022-12-15T10:00:22.260Z,19.35
2022-12-15T10:03:23.464Z,20.40
2022-12-15T10:06:17.110Z,18.63
2022-12-15T10:08:51.830Z,18.65
2022-12-15T10:11:30.488Z,15.77
2022-12-15T10:14:06.761Z,18.80
2022-12-15T10:16:46.230Z,15.35
2022-12-15T10:19:27.946Z,18.30
2022-12-15T10:21:57.369Z,15.93
2022-12-15T10:25:09.086Z,15.45
2022-12-15T10:27:37.623Z,15.35
2022-12-15T10:30:10.061Z,17.88
2022-12-15T10:32:50.659Z,14.27
2022-12-15T10:35:23.580Z,15.38
2022-12-15T10:37:51.540Z,14.43
2022-12-15T10:40:21.684Z,16.90
2022-12-15T10:42:52.132Z,15.73
2022-12-15T10:48:07.532Z,14.77
2022-12-15T10:50:36.920Z,16.38
2022-12-15T10:53:10.375Z,14.02
2022-12-15T10:55:40.791Z,16.10
2022-12-15T10:58:18.722Z,15.70
2022-12-15T11:00:50.962Z,16.13
2022-12-15T11:03:26.997Z,15.82
2022-12-15T11:05:56.721Z,17.83
2022-12-15T11:08:25.738Z,17.02
2022-12-15T11:11:13.457Z,14.10
2022-12-15T11:13:42.543Z,13.57
2022-12-15T11:16:16.586Z,17.00
2022-12-15T11:18:49.851Z,14.02
2022-12-15T11:21:23.416Z,16.17
2022-12-15T11:24:05.866Z,15.75
2022-12-15T11:26:48.887Z,20.65
2022-12-15T11:29:27.548Z,16.85
2022-12-15T11:32:04.771Z,15.15
2022-12-15T11:34:38.806Z,15.80
2022-12-15T11:37:36.919Z,18.02
2022-12-15T11:40:20.682Z,16.65
2022-12-15T11:43:02.541Z,14.43
2022-12-15T11:45:42.082Z,13.75
2022-12-15T11:50:53.503Z,17.13
2022-12-15T11:53:50.351Z,16.23
2022-12-15T11:56:29.424Z,19.90
2022-12-15T11:59:17.240Z,17.52
2022-12-15T12:02:05.846Z,13.48
2022-12-15T12:04:43.808Z,19.73
2022-12-15T12:07:25.958Z,13.40
2022-12-15T12:10:06.800Z,15.05
2022-12-15T12:12:43.757Z,13.90
2022-12-15T12:15:26.822Z,14.65
2022-12-15T12:17:59.174Z,13.43
2022-12-15T12:20:35.381Z,16.38
2022-12-15T12:23:11.004Z,14.20
2022-12-15T12:25:47.397Z,14.95
2022-12-15T12:28:20.467Z,13.68
2022-12-15T12:30:50.425Z,13.43
2022-12-15T12:33:31.534Z,14.55
2022-12-15T12:36:06.452Z,15.60
2022-12-15T12:38:41.377Z,12.60
2022-12-15T12:41:18.674Z,15.85
2022-12-15T12:43:51.624Z,16.20
2022-12-15T12:46:25.729Z,14.27
2022-12-15T12:48:56.803Z,17.23
2022-12-15T12:51:30.263Z,14.43
2022-12-15T12:54:00.806Z,14.00
2022-12-15T12:56:42.167Z,15.48
2022-12-15T12:59:36.321Z,14.95
2022-12-15T13:02:42.056Z,16.30
2022-12-15T13:05:28.619Z,15.35
2022-12-15T13:08:18.186Z,16.45
2022-12-15T13:10:50.861Z,15.45
2022-12-15T13:13:38.720Z,14.85
2022-12-15T13:16:12.279Z,15.02
2022-12-15T13:19:02.545Z,17.20
2022-12-15T13:21:55.323Z,13.50
2022-12-15T13:24:33.646Z,13.30
2022-12-15T13:27:16.460Z,14.35
2022-12-15T13:29:58.436Z,15.20
2022-12-15T13:32:36.014Z,13.02
2022-12-15T13:35:22.210Z,14.15
2022-12-15T13:37:52.472Z,11.23
2022-12-15T13:40:35.515Z,13.90
2022-12-15T13:43:38.675Z,12.23
2022-12-15T13:46:17.080Z,12.73
2022-12-15T13:48:49.297Z,14.25
2022-12-15T13:51:27.278Z,12.50
2022-12-15T13:54:00.457Z,14.52
2022-12-15T13:56:53.410Z,13.73
2022-12-15T13:59:30.421Z,15.25
2022-12-15T14:01:59.435Z,12.07
2022-12-15T14:04:28.211Z,19.75
2022-12-15T14:06:59.688Z,14.30
2022-12-15T14:09:31.466Z,13.45
2022-12-15T14:12:03.072Z,13.52
2022-12-15T14:14:35.838Z,13.68
2022-12-15T14:17:09.348Z,16.00
2022-12-15T14:19:40.209Z,14.95
2022-12-15T14:22:28.162Z,14.15
2022-12-15T14:25:03.283Z,14.90
2022-12-15T14:27:35.199Z,16.98
2022-12-15T14:30:24.624Z,15.45
2022-12-15T14:32:58.059Z,14.70
2022-12-15T14:35:31.161Z,16.38
2022-12-15T14:38:03.000Z,17.92
2022-12-15T14:40:31.329Z,21.48
2022-12-15T14:42:59.297Z,15.18
2022-12-15T14:45:32.710Z,14.38
2022-12-15T14:48:39.489Z,17.55
2022-12-15T14:50:51.992Z,17.60
2022-12-15T14:53:22.164Z,16.70
2022-12-15T14:55:51.609Z,16.67
2022-12-15T14:58:35.159Z,16.77
2022-12-15T15:01:07.268Z,15.30
2022-12-15T15:03:39.077Z,21.63
2022-12-15T15:06:16.701Z,19.98
2022-12-15T15:08:48.977Z,15.38
2022-12-15T15:11:29.397Z,16.23
2022-12-15T15:14:01.457Z,14.38
2022-12-15T15:16:31.113Z,17.42
2022-12-15T15:19:03.229Z,18.88
2022-12-15T15:21:35.146Z,21.45
2022-12-15T15:24:05.742Z,28.55
2022-12-15T15:26:33.783Z,28.55
2022-12-15T15:29:02.509Z,26.33
2022-12-15T15:31:41.541Z,22.83
2022-12-15T15:34:11.401Z,25.15
2022-12-15T15:39:15.228Z,18.90
2022-12-15T15:41:44.229Z,15.23
2022-12-15T15:44:15.002Z,18.92
2022-12-15T15:46:49.832Z,17.70
2022-12-15T15:49:21.528Z,18.38
2022-12-15T15:51:50.614Z,18.67
2022-12-15T15:54:21.201Z,19.80
2022-12-15T15:56:49.717Z,18.77
2022-12-15T15:59:21.477Z,19.95
2022-12-15T16:01:54.415Z,18.98
2022-12-15T16:04:24.746Z,23.30
2022-12-15T16:06:53.691Z,17.60
2022-12-15T16:09:22.409Z,16.45
2022-12-15T16:11:51.226Z,20.05
2022-12-15T16:14:19.691Z,16.58
2022-12-15T16:16:47.696Z,18.33
2022-12-15T16:19:17.455Z,19.60
2022-12-15T16:21:45.408Z,20.85
2022-12-15T16:24:17.696Z,19.17
2022-12-15T16:26:49.502Z,21.67
2022-12-15T16:29:22.489Z,19.25
2022-12-15T16:34:21.759Z,17.60
2022-12-15T16:36:50.661Z,16.60
2022-12-15T16:39:26.717Z,18.85
2022-12-15T16:41:56.779Z,17.13
2022-12-15T16:44:25.785Z,17.80
2022-12-15T16:46:53.967Z,21.20
2022-12-15T16:49:23.304Z,16.20
2022-12-15T16:51:53.889Z,15.98
2022-12-15T16:54:24.658Z,16.27
2022-12-15T16:56:54.185Z,17.27
2022-12-15T16:59:34.926Z,18.48
2022-12-15T17:02:19.237Z,16.10
2022-12-15T17:04:48.820Z,18.45
2022-12-15T17:07:20.429Z,18.00
2022-12-15T17:09:50.812Z,20.48
2022-12-15T17:12:19.336Z,20.35
2022-12-15T17:14:48.128Z,18.60
2022-12-15T17:17:18.224Z,19.45
2022-12-15T17:20:11.731Z,18.05
2022-12-15T17:22:36.265Z,21.40
2022-12-15T17:27:32.025Z,23.48
2022-12-15T17:30:03.456Z,19.60
2022-12-15T17:32:31.548Z,19.48
2022-12-15T17:34:59.550Z,21.90
2022-12-15T17:37:34.883Z,22.20
2022-12-15T17:40:14.777Z,19.67
2022-12-15T17:42:43.695Z,22.83
2022-12-15T17:45:20.903Z,17.63
2022-12-15T17:47:50.602Z,20.30
2022-12-15T17:50:19.404Z,17.95
2022-12-15T17:52:49.536Z,18.77
2022-12-15T17:55:29.077Z,18.80
2022-12-15T17:58:00.077Z,18.23
2022-12-15T18:00:30.787Z,16.73
2022-12-15T18:03:00.623Z,18.88
2022-12-15T18:05:31.711Z,17.58
2022-12-15T18:08:02.609Z,17.35
2022-12-15T18:10:36.608Z,18.90
2022-12-15T18:13:05.344Z,19.90
2022-12-15T18:15:34.036Z,18.15
2022-12-15T18:18:01.975Z,17.40
2022-12-15T18:20:29.955Z,16.02
2022-12-15T18:22:58.796Z,16.42
2022-12-15T18:25:28.423Z,16.13
2022-12-15T18:27:59.763Z,18.40
2022-12-15T18:30:28.323Z,20.23
2022-12-15T18:32:59.887Z,18.00
2022-12-15T18:35:34.247Z,17.00
2022-12-15T18:38:02.178Z,19.45
2022-12-15T18:40:31.324Z,20.38
2022-12-15T18:43:01.618Z,20.25
2022-12-15T18:45:29.613Z,17.98
2022-12-15T18:47:57.927Z,20.38
2022-12-15T18:50:27.996Z,21.88
2022-12-15T18:53:00.260Z,20.92
2022-12-15T18:55:31.972Z,23.50
2022-12-15T18:58:02.818Z,18.85
2022-12-15T19:00:32.906Z,24.05
2022-12-15T19:03:02.773Z,21.65
2022-12-15T19:05:33.039Z,19.48
2022-12-15T19:08:04.305Z,19.48
2022-12-15T19:10:35.828Z,20.65
2022-12-15T19:13:05.421Z,18.60
2022-12-15T19:18:19.458Z,20.25
2022-12-15T19:21:05.103Z,14.10
2022-12-15T19:23:34.751Z,19.33
2022-12-15T19:26:03.167Z,21.15
2022-12-15T19:28:33.614Z,21.88
2022-12-15T19:31:01.775Z,17.63
2022-12-15T19:33:30.986Z,18.33
2022-12-15T19:36:00.410Z,17.45
2022-12-15T19:38:31.195Z,23.90
2022-12-15T19:41:01.080Z,20.65
2022-12-15T19:43:29.547Z,22.38
2022-12-15T19:45:59.211Z,22.80
2022-12-15T19:48:28.205Z,19.02
2022-12-15T19:50:56.202Z,19.60
2022-12-15T19:53:26.823Z,19.13
2022-12-15T19:55:57.746Z,17.88
2022-12-15T19:58:29.042Z,19.75
2022-12-15T20:01:02.233Z,21.33
2022-12-15T20:03:31.837Z,30.05
2022-12-15T20:06:02.813Z,23.90
2022-12-15T20:08:35.227Z,21.63
2022-12-15T20:11:03.743Z,25.42
2022-12-15T20:13:32.121Z,24.27
2022-12-15T20:16:01.792Z,20.98
2022-12-15T20:18:30.770Z,21.35
2022-12-15T20:21:01.387Z,21.73
2022-12-15T20:23:32.469Z,21.70
2022-12-15T20:26:01.269Z,27.25
2022-12-15T20:28:30.793Z,23.70
2022-12-15T20:33:28.893Z,19.15
2022-12-15T20:35:57.708Z,23.48
2022-12-15T20:38:29.736Z,24.35
2022-12-15T20:40:58.568Z,20.80
2022-12-15T20:43:32.187Z,20.80
2022-12-15T20:46:04.889Z,20.05
2022-12-15T20:48:37.333Z,23.00
2022-12-15T20:51:09.566Z,21.15
2022-12-15T20:53:38.919Z,20.20
2022-12-15T20:56:07.363Z,20.20
2022-12-15T20:58:41.801Z,22.52
2022-12-15T21:01:21.884Z,20.90
2022-12-15T21:03:52.749Z,21.10
2022-12-15T21:06:22.244Z,22.30
2022-12-15T21:08:50.494Z,29.17
2022-12-15T21:11:21.683Z,25.92
2022-12-15T21:13:51.279Z,28.35
2022-12-15T21:16:21.556Z,28.42
2022-12-15T21:19:18.540Z,26.15
2022-12-15T21:21:43.213Z,33.47
2022-12-15T21:24:16.626Z,27.92
2022-12-15T21:26:45.040Z,31.48
2022-12-15T21:29:14.783Z,27.48
2022-12-15T21:31:44.293Z,23.92
2022-12-15T21:34:14.190Z,23.77
2022-12-15T21:36:44.940Z,25.17
2022-12-15T21:39:17.018Z,27.38
2022-12-15T21:41:45.588Z,22.85
2022-12-15T21:44:14.715Z,26.70
2022-12-15T21:46:43.342Z,24.27
2022-12-15T21:49:15.352Z,25.35
2022-12-15T21:51:45.377Z,22.20
2022-12-15T21:54:19.619Z,24.88
2022-12-15T21:56:48.643Z,23.08
2022-12-15T21:59:18.700Z,25.88
2022-12-15T22:01:48.031Z,28.63
2022-12-15T22:04:22.566Z,27.83
2022-12-15T22:06:51.459Z,28.67
2022-12-15T22:09:21.184Z,29.08
2022-12-15T22:11:53.334Z,32.22
2022-12-15T22:14:26.526Z,28.55
2022-12-15T22:16:55.966Z,31.02
2022-12-15T22:19:25.552Z,26.58
2022-12-15T22:21:54.234Z,29.13
2022-12-15T22:24:23.429Z,32.53
2022-12-15T22:26:51.576Z,37.47
2022-12-15T22:29:22.305Z,30.45
2022-12-15T22:31:52.144Z,31.27
2022-12-15T22:34:22.368Z,28.85
2022-12-15T22:36:52.790Z,27.02
2022-12-15T22:39:23.014Z,32.20
2022-12-15T22:41:54.237Z,33.47
2022-12-15T22:44:24.870Z,35.10
2022-12-15T22:46:57.315Z,33.70
2022-12-15T22:49:30.048Z,28.55
2022-12-15T22:52:00.329Z,31.92
2022-12-15T22:54:29.979Z,35.42
2022-12-15T22:57:02.332Z,29.48
2022-12-15T22:59:37.009Z,29.02
2022-12-15T23:02:06.565Z,32.45
2022-12-15T23:04:34.867Z,30.08
2022-12-15T23:07:10.501Z,32.47
2022-12-15T23:09:38.587Z,33.33
2022-12-15T23:12:05.974Z,28.05
2022-12-15T23:14:52.086Z,35.65
2022-12-15T23:17:20.112Z,32.47
2022-12-15T23:19:48.923Z,29.05
2022-12-15T23:22:18.951Z,28.33
2022-12-15T23:24:46.899Z,29.38
2022-12-15T23:27:15.994Z,26.65
2022-12-15T23:29:43.931Z,32.22
2022-12-15T23:32:12.403Z,25.40
2022-12-15T23:34:41.126Z,31.05
2022-12-15T23:37:09.144Z,32.35
2022-12-15T23:39:38.515Z,31.35
2022-12-15T23:42:07.613Z,25.95
2022-12-15T23:44:37.376Z,26.97
2022-12-15T23:47:06.145Z,28.35
2022-12-15T23:49:34.304Z,22.92
2022-12-15T23:52:02.289Z,28.55
2022-12-15T23:54:30.450Z,24.23
2022-12-15T23:57:00.771Z,25.52
2022-12-15T23:59:28.792Z,20.98
